createdAt,value
2023-10-22T00:01:50.351Z,96152.34
2023-10-22T00:04:21.908Z,96164.31
2023-10-22T00:06:53.465Z,96165.56
2023-10-22T00:09:25.209Z,96160.50
2023-10-22T00:11:56.795Z,96169.50
2023-10-22T00:14:28.587Z,96169.81
2023-10-22T00:17:00.077Z,96178.16
2023-10-22T00:19:50.551Z,96174.69
2023-10-22T00:22:22.125Z,96172.31
2023-10-22T00:24:54.842Z,96174.00
2023-10-22T00:27:26.390Z,96177.00
2023-10-22T00:29:57.954Z,96174.31
2023-10-22T00:32:29.537Z,96181.03
2023-10-22T00:35:01.153Z,96183.75
2023-10-22T00:37:32.669Z,96181.09
2023-10-22T00:40:04.638Z,96178.59
2023-10-22T00:42:36.234Z,96179.41
2023-10-22T00:45:08.233Z,96184.28
2023-10-22T00:47:39.958Z,96185.06
2023-10-22T00:50:11.618Z,96185.22
2023-10-22T00:52:43.301Z,96185.22
2023-10-22T00:55:16.130Z,96188.03
2023-10-22T00:57:47.724Z,96182.25
2023-10-22T01:00:21.547Z,96192.16
2023-10-22T01:02:53.233Z,96189.47
2023-10-22T01:05:24.909Z,96195.94
2023-10-22T01:07:57.757Z,96198.94
2023-10-22T01:10:29.259Z,96202.41
2023-10-22T01:13:01.267Z,96202.88
2023-10-22T01:15:32.936Z,96200.03
2023-10-22T01:18:04.884Z,96198.47
2023-10-22T01:20:36.525Z,96204.28
2023-10-22T01:23:10.488Z,96205.56
2023-10-22T01:25:41.987Z,96207.44
2023-10-22T01:28:13.637Z,96216.53
2023-10-22T01:30:45.716Z,96217.91
2023-10-22T01:33:17.356Z,96223.13
2023-10-22T01:35:49.034Z,96213.88
2023-10-22T01:38:20.674Z,96217.66
2023-10-22T01:40:52.239Z,96224.41
2023-10-22T01:43:23.789Z,96218.78
2023-10-22T01:45:55.306Z,96223.66
2023-10-22T01:48:26.963Z,96218.47
2023-10-22T01:50:58.817Z,96225.88
2023-10-22T01:53:30.572Z,96224.94
2023-10-22T01:56:02.078Z,96222.25
2023-10-22T01:58:33.648Z,96226.81
2023-10-22T02:01:05.232Z,96227.44
2023-10-22T02:03:37.156Z,96229.16
2023-10-22T02:06:16.244Z,96231.84
2023-10-22T02:08:47.790Z,96238.59
2023-10-22T02:11:20.113Z,96234.53
2023-10-22T02:13:51.741Z,96239.84
2023-10-22T02:16:23.448Z,96235.78
2023-10-22T02:18:54.997Z,96235.59
2023-10-22T02:21:26.510Z,96234.66
2023-10-22T02:23:58.034Z,96235.75
2023-10-22T02:26:29.566Z,96242.22
2023-10-22T02:29:01.117Z,96239.84
2023-10-22T02:31:32.630Z,96249.94
2023-10-22T02:34:08.679Z,96252.13
2023-10-22T02:36:40.185Z,96254.31
2023-10-22T02:39:11.743Z,96249.91
2023-10-22T02:41:45.675Z,96250.84
2023-10-22T02:44:17.209Z,96250.34
2023-10-22T02:46:48.811Z,96257.47
2023-10-22T02:49:20.434Z,96262.81
2023-10-22T02:51:51.960Z,96259.69
2023-10-22T02:54:23.542Z,96251.97
2023-10-22T02:56:55.074Z,96250.09
2023-10-22T02:59:26.672Z,96247.59
2023-10-22T03:01:58.185Z,96262.03
2023-10-22T03:04:29.835Z,96250.41
2023-10-22T03:07:01.409Z,96256.66
2023-10-22T03:09:33.630Z,96259.63
2023-10-22T03:12:05.396Z,96263.44
2023-10-22T03:14:37.229Z,96270.81
2023-10-22T03:17:08.973Z,96269.41
2023-10-22T03:19:41.909Z,96265.13
2023-10-22T03:22:13.717Z,96267.78
2023-10-22T03:24:52.321Z,96259.63
2023-10-22T03:27:23.874Z,96273.16
2023-10-22T03:29:55.419Z,96275.47
2023-10-22T03:32:27.036Z,96275.03
2023-10-22T03:34:58.626Z,96270.66
2023-10-22T03:37:30.136Z,96280.72
2023-10-22T03:40:01.775Z,96279.03
2023-10-22T03:42:33.383Z,96275.69
2023-10-22T03:45:06.169Z,96284.84
2023-10-22T03:47:37.856Z,96287.63
2023-10-22T03:50:09.549Z,96288.88
2023-10-22T03:52:44.057Z,96292.31
2023-10-22T03:55:16.207Z,96293.56
2023-10-22T03:57:47.823Z,96307.78
2023-10-22T04:00:19.387Z,96301.53
2023-10-22T04:02:51.088Z,96305.50
2023-10-22T04:05:24.284Z,96307.88
2023-10-22T04:07:55.734Z,96312.41
2023-10-22T04:10:27.388Z,96312.59
2023-10-22T04:12:58.893Z,96323.84
2023-10-22T04:15:36.455Z,96325.31
2023-10-22T04:18:07.991Z,96322.31
2023-10-22T04:20:39.843Z,96333.53
2023-10-22T04:23:11.380Z,96323.94
2023-10-22T04:25:42.902Z,96331.56
2023-10-22T04:28:15.618Z,96328.53
2023-10-22T04:30:47.348Z,96332.31
2023-10-22T04:33:19.303Z,96328.41
2023-10-22T04:35:51.079Z,96337.97
2023-10-22T04:38:22.604Z,96337.47
2023-10-22T04:40:54.143Z,96342.50
2023-10-22T04:43:25.632Z,96344.00
2023-10-22T04:45:57.205Z,96341.97
2023-10-22T04:48:28.909Z,96345.75
2023-10-22T04:51:07.831Z,96352.50
2023-10-22T04:53:39.393Z,96353.84
2023-10-22T04:56:10.944Z,96350.50
2023-10-22T04:58:42.393Z,96342.63
2023-10-22T05:01:14.014Z,96346.41
2023-10-22T05:03:45.711Z,96349.56
2023-10-22T05:06:17.444Z,96351.75
2023-10-22T05:08:48.991Z,96350.38
2023-10-22T05:11:20.563Z,96347.22
2023-10-22T05:13:52.084Z,96347.06
2023-10-22T05:16:23.622Z,96344.25
2023-10-22T05:18:55.161Z,96350.09
2023-10-22T05:21:26.904Z,96351.16
2023-10-22T05:23:58.390Z,96344.28
2023-10-22T05:26:30.025Z,96351.16
2023-10-22T05:29:01.512Z,96351.44
2023-10-22T05:31:33.472Z,96348.69
2023-10-22T05:34:05.055Z,96352.16
2023-10-22T05:36:36.681Z,96357.00
2023-10-22T05:39:08.562Z,96358.56
2023-10-22T05:41:40.061Z,96357.06
2023-10-22T05:44:11.540Z,96351.34
2023-10-22T05:46:43.255Z,96353.50
2023-10-22T05:49:14.747Z,96358.59
2023-10-22T05:51:46.246Z,96353.22
2023-10-22T05:54:17.734Z,96354.97
2023-10-22T05:56:49.193Z,96364.66
2023-10-22T05:59:20.693Z,96370.69
2023-10-22T06:01:52.229Z,96370.63
2023-10-22T06:04:23.945Z,96375.13
2023-10-22T06:06:55.410Z,96375.84
2023-10-22T06:09:26.863Z,96375.59
2023-10-22T06:11:58.385Z,96382.81
2023-10-22T06:14:29.953Z,96380.22
2023-10-22T06:17:01.468Z,96394.25
2023-10-22T06:19:33.027Z,96393.00
2023-10-22T06:22:04.673Z,96397.56
2023-10-22T06:24:36.312Z,96403.41
2023-10-22T06:27:07.908Z,96406.56
2023-10-22T06:29:39.584Z,96413.03
2023-10-22T06:32:11.165Z,96410.44
2023-10-22T06:34:42.690Z,96416.00
2023-10-22T06:37:14.155Z,96411.69
2023-10-22T06:39:45.558Z,96414.31
2023-10-22T06:42:17.027Z,96418.28
2023-10-22T06:44:48.769Z,96420.34
2023-10-22T06:47:20.270Z,96425.41
2023-10-22T06:49:51.709Z,96424.00
2023-10-22T06:52:23.166Z,96425.13
2023-10-22T06:55:06.133Z,96433.16
2023-10-22T06:57:41.005Z,96428.75
2023-10-22T07:00:16.895Z,96428.88
2023-10-22T07:02:48.511Z,96430.22
2023-10-22T07:05:20.255Z,96434.00
2023-10-22T07:07:51.721Z,96428.50
2023-10-22T07:10:23.284Z,96437.41
2023-10-22T07:12:54.947Z,96429.56
2023-10-22T07:15:26.412Z,96437.38
2023-10-22T07:17:57.991Z,96429.59
2023-10-22T07:20:29.568Z,96432.69
2023-10-22T07:23:01.116Z,96429.69
2023-10-22T07:25:32.636Z,96437.19
2023-10-22T07:28:04.717Z,96437.31
2023-10-22T07:30:36.282Z,96440.69
2023-10-22T07:33:07.895Z,96444.50
2023-10-22T07:35:39.430Z,96452.06
2023-10-22T07:38:10.989Z,96454.09
2023-10-22T07:40:45.499Z,96446.81
2023-10-22T07:43:17.002Z,96455.25
2023-10-22T07:45:48.626Z,96460.72
2023-10-22T07:48:20.515Z,96464.59
2023-10-22T07:50:52.215Z,96462.22
2023-10-22T07:53:23.736Z,96456.44
2023-10-22T07:55:55.279Z,96455.72
2023-10-22T07:58:26.932Z,96458.94
2023-10-22T08:00:58.628Z,96462.38
2023-10-22T08:03:31.510Z,96461.38
2023-10-22T08:06:05.069Z,96459.81
2023-10-22T08:08:36.687Z,96466.88
2023-10-22T08:11:08.392Z,96465.78
2023-10-22T08:13:43.636Z,96467.97
2023-10-22T08:16:15.251Z,96472.94
2023-10-22T08:18:46.829Z,96472.19
2023-10-22T08:21:18.472Z,96480.41
2023-10-22T08:23:50.035Z,96472.66
2023-10-22T08:26:23.477Z,96470.69
2023-10-22T08:28:55.198Z,96471.25
2023-10-22T08:31:26.730Z,96472.00
2023-10-22T08:33:58.264Z,96471.28
2023-10-22T08:36:31.129Z,96470.28
2023-10-22T08:39:02.805Z,96483.28
2023-10-22T08:41:45.012Z,96485.22
2023-10-22T08:44:16.695Z,96492.97
2023-10-22T08:46:48.294Z,96479.94
2023-10-22T08:49:23.704Z,96483.81
2023-10-22T08:51:55.452Z,96492.16
2023-10-22T08:54:26.947Z,96488.25
2023-10-22T08:56:58.513Z,96491.72
2023-10-22T08:59:39.101Z,96486.97
2023-10-22T09:02:13.410Z,96485.59
2023-10-22T09:04:45.017Z,96487.84
2023-10-22T09:07:16.764Z,96496.56
2023-10-22T09:09:48.257Z,96492.94
2023-10-22T09:12:23.006Z,96494.31
2023-10-22T09:14:57.930Z,96487.84
2023-10-22T09:17:29.506Z,96491.00
2023-10-22T09:20:01.070Z,96491.78
2023-10-22T09:22:32.605Z,96492.66
2023-10-22T09:25:04.489Z,96499.03
2023-10-22T09:27:36.067Z,96489.88
2023-10-22T09:30:08.036Z,96498.59
2023-10-22T09:32:48.745Z,96501.47
2023-10-22T09:35:20.571Z,96500.88
2023-10-22T09:37:52.409Z,96508.00
2023-10-22T09:40:23.963Z,96507.28
2023-10-22T09:42:56.420Z,96518.59
2023-10-22T09:45:30.285Z,96510.13
2023-10-22T09:48:12.459Z,96513.25
2023-10-22T09:50:46.191Z,96512.13
2023-10-22T09:53:18.055Z,96514.09
2023-10-22T09:55:50.331Z,96528.34
2023-10-22T09:58:29.404Z,96522.84
2023-10-22T10:01:01.288Z,96522.84
2023-10-22T10:03:33.491Z,96518.50
2023-10-22T10:06:09.839Z,96523.38
2023-10-22T10:08:42.117Z,96520.88
2023-10-22T10:11:13.962Z,96517.88
2023-10-22T10:13:45.687Z,96514.94
2023-10-22T10:16:17.225Z,96519.31
2023-10-22T10:19:00.334Z,96524.69
2023-10-22T10:21:34.889Z,96522.59
2023-10-22T10:24:15.586Z,96525.59
2023-10-22T10:26:48.495Z,96523.78
2023-10-22T10:29:31.408Z,96515.69
2023-10-22T10:32:14.971Z,96514.34
2023-10-22T10:34:50.828Z,96513.16
2023-10-22T10:37:23.542Z,96513.44
2023-10-22T10:39:55.288Z,96509.16
2023-10-22T10:42:29.980Z,96500.84
2023-10-22T10:45:01.538Z,96500.16
2023-10-22T10:47:35.230Z,96499.03
2023-10-22T10:50:11.864Z,96497.75
2023-10-22T10:52:49.241Z,96496.97
2023-10-22T10:55:20.681Z,96495.25
2023-10-22T10:57:53.945Z,96494.34
2023-10-22T11:00:32.792Z,96500.09
2023-10-22T11:03:05.756Z,96497.78
2023-10-22T11:05:41.544Z,96494.03
2023-10-22T11:08:13.777Z,96487.41
2023-10-22T11:10:46.363Z,96480.88
2023-10-22T11:13:27.132Z,96479.31
2023-10-22T11:16:04.804Z,96483.47
2023-10-22T11:18:52.778Z,96478.84
2023-10-22T11:21:24.894Z,96469.78
2023-10-22T11:23:56.836Z,96460.78
2023-10-22T11:26:28.766Z,96462.78
2023-10-22T11:29:00.333Z,96462.41
2023-10-22T11:31:31.809Z,96468.00
2023-10-22T11:34:16.486Z,96466.31
2023-10-22T11:36:48.079Z,96464.91
2023-10-22T11:39:34.709Z,96461.22
2023-10-22T11:42:12.532Z,96462.78
2023-10-22T11:44:45.488Z,96461.41
2023-10-22T11:47:28.340Z,96453.22
2023-10-22T11:50:00.474Z,96451.06
2023-10-22T11:52:47.050Z,96447.22
2023-10-22T11:55:35.482Z,96445.53
2023-10-22T11:58:17.597Z,96438.69
2023-10-22T12:00:49.835Z,96434.16
2023-10-22T12:03:21.538Z,96432.28
2023-10-22T12:05:53.324Z,96428.59
2023-10-22T12:08:24.918Z,96431.06
2023-10-22T12:10:56.442Z,96420.44
2023-10-22T12:13:28.046Z,96426.09
2023-10-22T12:15:59.638Z,96428.00
2023-10-22T12:18:31.189Z,96432.13
2023-10-22T12:21:02.790Z,96431.72
2023-10-22T12:23:42.210Z,96425.09
2023-10-22T12:26:20.303Z,96434.69
2023-10-22T12:28:51.817Z,96430.03
2023-10-22T12:31:23.510Z,96435.53
2023-10-22T12:33:55.024Z,96443.28
2023-10-22T12:36:26.640Z,96438.34
2023-10-22T12:38:58.231Z,96448.34
2023-10-22T12:41:29.794Z,96447.44
2023-10-22T12:44:01.754Z,96447.38
2023-10-22T12:46:33.945Z,96440.59
2023-10-22T12:49:05.537Z,96444.91
2023-10-22T12:51:37.072Z,96455.69
2023-10-22T12:54:08.597Z,96449.72
2023-10-22T12:56:40.129Z,96445.19
2023-10-22T12:59:11.668Z,96448.44
2023-10-22T13:01:43.179Z,96454.19
2023-10-22T13:04:14.763Z,96458.09
2023-10-22T13:06:46.346Z,96447.50
2023-10-22T13:09:18.047Z,96454.78
2023-10-22T13:11:49.698Z,96455.16
2023-10-22T13:14:22.742Z,96455.44
2023-10-22T13:16:54.245Z,96458.72
2023-10-22T13:19:25.843Z,96459.88
2023-10-22T13:21:57.364Z,96454.94
2023-10-22T13:24:29.036Z,96460.06
2023-10-22T13:27:00.610Z,96466.47
2023-10-22T13:29:32.118Z,96465.03
2023-10-22T13:32:03.861Z,96475.03
2023-10-22T13:34:35.430Z,96478.78
2023-10-22T13:37:07.008Z,96471.31
2023-10-22T13:39:38.653Z,96469.28
2023-10-22T13:42:10.359Z,96469.72
2023-10-22T13:44:42.999Z,96473.56
2023-10-22T13:47:14.555Z,96466.13
2023-10-22T13:49:46.246Z,96470.28
2023-10-22T13:52:17.778Z,96469.53
2023-10-22T13:54:49.321Z,96479.09
2023-10-22T13:57:20.976Z,96472.84
2023-10-22T13:59:52.535Z,96470.75
2023-10-22T14:02:24.105Z,96475.22
2023-10-22T14:04:55.728Z,96477.75
2023-10-22T14:07:27.343Z,96475.66
2023-10-22T14:09:58.867Z,96481.06
2023-10-22T14:12:30.439Z,96478.91
2023-10-22T14:15:02.062Z,96478.19
2023-10-22T14:17:33.733Z,96479.50
2023-10-22T14:20:05.789Z,96481.06
2023-10-22T14:22:37.288Z,96481.56
2023-10-22T14:25:08.898Z,96486.38
2023-10-22T14:27:40.395Z,96478.63
2023-10-22T14:30:12.674Z,96486.22
2023-10-22T14:32:44.434Z,96482.03
2023-10-22T14:35:16.019Z,96479.72
2023-10-22T14:37:47.592Z,96478.06
2023-10-22T14:40:19.143Z,96484.88
2023-10-22T14:42:50.658Z,96485.38
2023-10-22T14:45:22.203Z,96484.41
2023-10-22T14:47:53.743Z,96480.69
2023-10-22T14:50:25.232Z,96483.25
2023-10-22T14:52:56.795Z,96473.44
2023-10-22T14:55:28.381Z,96475.34
2023-10-22T14:57:59.862Z,96470.97
2023-10-22T15:00:31.421Z,96480.75
2023-10-22T15:03:03.072Z,96477.78
2023-10-22T15:05:34.747Z,96473.63
2023-10-22T15:08:06.247Z,96482.50
2023-10-22T15:10:45.650Z,96477.94
2023-10-22T15:13:17.176Z,96473.16
2023-10-22T15:15:48.938Z,96465.81
2023-10-22T15:18:20.688Z,96468.53
2023-10-22T15:20:53.032Z,96469.09
2023-10-22T15:23:24.582Z,96476.91
2023-10-22T15:25:56.139Z,96472.84
2023-10-22T15:28:27.619Z,96474.91
2023-10-22T15:30:59.165Z,96476.91
2023-10-22T15:33:30.716Z,96477.84
2023-10-22T15:36:02.341Z,96480.59
2023-10-22T15:38:33.837Z,96492.13
2023-10-22T15:41:05.378Z,96483.53
2023-10-22T15:43:36.942Z,96480.03
2023-10-22T15:46:28.808Z,96486.34
2023-10-22T15:49:00.448Z,96493.78
2023-10-22T15:51:32.201Z,96493.34
2023-10-22T15:54:03.936Z,96492.81
2023-10-22T15:56:35.494Z,96486.06
2023-10-22T15:59:07.112Z,96487.22
2023-10-22T16:01:38.855Z,96491.97
2023-10-22T16:04:10.308Z,96492.00
2023-10-22T16:06:44.990Z,96504.16
2023-10-22T16:09:16.532Z,96495.38
2023-10-22T16:11:48.054Z,96494.97
2023-10-22T16:14:19.548Z,96502.44
2023-10-22T16:16:51.024Z,96493.00
2023-10-22T16:19:22.667Z,96501.50
2023-10-22T16:21:54.267Z,96503.34
2023-10-22T16:24:25.785Z,96506.44
2023-10-22T16:26:57.261Z,96513.00
2023-10-22T16:29:28.832Z,96504.22
2023-10-22T16:32:00.361Z,96508.63
2023-10-22T16:34:34.184Z,96508.22
2023-10-22T16:37:05.783Z,96505.72
2023-10-22T16:39:37.809Z,96506.66
2023-10-22T16:42:11.984Z,96514.84
2023-10-22T16:44:44.314Z,96513.50
2023-10-22T16:50:49.708Z,96517.22
2023-10-22T16:53:21.190Z,96524.88
2023-10-22T16:55:52.682Z,96524.09
2023-10-22T16:58:24.148Z,96524.91
2023-10-22T17:00:55.954Z,96526.50
2023-10-22T17:03:27.536Z,96531.00
2023-10-22T17:05:59.511Z,96536.78
2023-10-22T17:08:31.153Z,96534.09
2023-10-22T17:11:02.794Z,96542.81
2023-10-22T17:13:34.307Z,96541.81
2023-10-22T17:16:06.035Z,96547.75
2023-10-22T17:18:51.979Z,96553.88
2023-10-22T17:21:25.465Z,96543.91
2023-10-22T17:23:57.726Z,96554.53
2023-10-22T17:26:29.357Z,96549.97
2023-10-22T17:29:01.316Z,96539.38
2023-10-22T17:31:32.858Z,96541.56
2023-10-22T17:34:06.560Z,96543.31
2023-10-22T17:36:38.547Z,96546.31
2023-10-22T17:39:10.068Z,96541.59
2023-10-22T17:41:41.666Z,96536.88
2023-10-22T17:44:13.213Z,96544.13
2023-10-22T17:46:44.890Z,96542.53
2023-10-22T17:49:16.502Z,96547.09
2023-10-22T17:51:48.070Z,96549.91
2023-10-22T17:54:22.691Z,96550.41
2023-10-22T17:56:54.624Z,96550.69
2023-10-22T17:59:26.133Z,96550.44
2023-10-22T18:02:09.575Z,96553.34
2023-10-22T18:04:42.183Z,96554.44
2023-10-22T18:07:14.025Z,96552.09
2023-10-22T18:09:45.633Z,96548.28
2023-10-22T18:12:17.156Z,96549.19
2023-10-22T18:14:48.684Z,96544.38
2023-10-22T18:17:20.482Z,96551.47
2023-10-22T18:19:52.704Z,96549.41
2023-10-22T18:22:24.430Z,96549.28
2023-10-22T18:24:56.122Z,96546.72
2023-10-22T18:27:27.695Z,96541.25
2023-10-22T18:29:59.211Z,96553.53
2023-10-22T18:32:30.757Z,96544.56
2023-10-22T18:35:02.294Z,96546.00
2023-10-22T18:37:33.798Z,96550.53
2023-10-22T18:40:06.025Z,96553.09
2023-10-22T18:42:37.683Z,96555.09
2023-10-22T18:45:09.628Z,96561.66
2023-10-22T18:47:41.267Z,96563.03
2023-10-22T18:50:12.922Z,96572.88
2023-10-22T18:52:44.543Z,96576.06
2023-10-22T18:55:16.177Z,96575.56
2023-10-22T18:57:47.760Z,96573.38
2023-10-22T19:00:19.806Z,96584.94
2023-10-22T19:02:51.474Z,96582.63
2023-10-22T19:05:23.079Z,96592.81
2023-10-22T19:07:54.621Z,96590.81
2023-10-22T19:10:26.130Z,96585.81
2023-10-22T19:12:57.632Z,96580.78
2023-10-22T19:15:29.759Z,96592.09
2023-10-22T19:18:01.759Z,96595.53
2023-10-22T19:20:34.249Z,96592.50
2023-10-22T19:23:06.314Z,96607.34
2023-10-22T19:25:37.986Z,96608.13
2023-10-22T19:28:09.592Z,96608.31
2023-10-22T19:30:41.285Z,96612.47
2023-10-22T19:33:12.931Z,96609.69
2023-10-22T19:35:45.242Z,96619.50
2023-10-22T19:38:16.964Z,96625.31
2023-10-22T19:40:49.495Z,96629.94
2023-10-22T19:43:21.845Z,96635.47
2023-10-22T19:45:55.733Z,96625.38
2023-10-22T19:48:27.622Z,96619.75
2023-10-22T19:51:01.221Z,96613.97
2023-10-22T19:53:33.016Z,96627.03
2023-10-22T19:56:07.250Z,96620.34
2023-10-22T19:58:38.969Z,96625.00
2023-10-22T20:01:42.898Z,96621.50
2023-10-22T20:04:14.768Z,96620.59
2023-10-22T20:10:44.240Z,96624.91
2023-10-22T20:13:16.397Z,96626.72
2023-10-22T20:15:47.995Z,96629.66
2023-10-22T20:18:19.684Z,96631.94
2023-10-22T20:20:51.270Z,96632.25
2023-10-22T20:23:23.417Z,96624.97
2023-10-22T20:25:55.208Z,96627.47
2023-10-22T20:28:26.856Z,96623.72
2023-10-22T20:30:58.753Z,96623.75
2023-10-22T20:33:30.414Z,96626.41
2023-10-22T20:36:02.007Z,96621.22
2023-10-22T20:38:35.058Z,96616.81
2023-10-22T20:41:08.393Z,96612.91
2023-10-22T20:43:40.425Z,96608.44
2023-10-22T20:46:12.549Z,96601.19
2023-10-22T20:48:44.337Z,96596.09
2023-10-22T20:51:16.718Z,96603.41
2023-10-22T20:53:48.612Z,96604.69
2023-10-22T20:56:20.159Z,96593.53
2023-10-22T20:58:54.674Z,96604.19
2023-10-22T21:01:26.252Z,96602.91
2023-10-22T21:03:57.950Z,96590.75
2023-10-22T21:06:29.916Z,96591.53
2023-10-22T21:09:01.491Z,96587.09
2023-10-22T21:11:33.070Z,96578.19
2023-10-22T21:14:04.729Z,96589.38
2023-10-22T21:16:36.476Z,96586.91
2023-10-22T21:19:08.255Z,96585.41
2023-10-22T21:21:39.837Z,96582.06
2023-10-22T21:24:11.393Z,96581.16
2023-10-22T21:26:42.958Z,96580.44
2023-10-22T21:29:14.509Z,96585.91
2023-10-22T21:31:46.050Z,96585.50
2023-10-22T21:34:17.578Z,96581.75
2023-10-22T21:36:49.103Z,96589.06
2023-10-22T21:39:20.638Z,96580.75
2023-10-22T21:41:52.314Z,96588.16
2023-10-22T21:44:23.861Z,96592.22
2023-10-22T21:46:55.424Z,96590.53
2023-10-22T21:49:26.925Z,96601.16
2023-10-22T21:51:58.448Z,96593.25
2023-10-22T21:54:30.009Z,96591.38
2023-10-22T21:57:01.580Z,96577.50
2023-10-22T21:59:38.280Z,96587.00
2023-10-22T22:02:10.750Z,96587.97
2023-10-22T22:04:42.699Z,96592.63
2023-10-22T22:07:14.432Z,96603.91
2023-10-22T22:09:46.132Z,96598.19
2023-10-22T22:12:18.623Z,96604.69
2023-10-22T22:14:50.300Z,96596.22
2023-10-22T22:17:21.812Z,96602.19
2023-10-22T22:19:53.415Z,96597.25
2023-10-22T22:22:25.049Z,96595.91
2023-10-22T22:24:57.180Z,96588.66
2023-10-22T22:27:28.997Z,96595.81
2023-10-22T22:30:00.881Z,96596.09
2023-10-22T22:32:33.056Z,96603.81
2023-10-22T22:35:05.033Z,96600.13
2023-10-22T22:37:37.364Z,96598.50
2023-10-22T22:40:09.637Z,96602.69
2023-10-22T22:42:41.495Z,96594.59
2023-10-22T22:45:13.048Z,96606.56
2023-10-22T22:47:44.674Z,96599.06
2023-10-22T22:50:16.270Z,96598.50
2023-10-22T22:52:47.795Z,96591.78
2023-10-22T22:55:19.321Z,96593.06
2023-10-22T22:57:50.871Z,96591.53
2023-10-22T23:00:22.544Z,96597.13
2023-10-22T23:02:54.120Z,96593.41
2023-10-22T23:05:25.926Z,96588.81
2023-10-22T23:07:57.528Z,96596.56
2023-10-22T23:10:29.041Z,96594.00
2023-10-22T23:13:00.554Z,96592.13
2023-10-22T23:15:32.123Z,96592.44
2023-10-22T23:18:03.924Z,96597.00
2023-10-22T23:20:35.461Z,96595.84
2023-10-22T23:23:06.944Z,96596.50
2023-10-22T23:25:38.432Z,96606.16
2023-10-22T23:28:09.948Z,96611.44
2023-10-22T23:30:41.555Z,96601.44
2023-10-22T23:33:13.187Z,96608.94
2023-10-22T23:35:45.620Z,96603.63
2023-10-22T23:38:17.166Z,96611.81
2023-10-22T23:40:48.776Z,96612.94
2023-10-22T23:43:20.211Z,96615.63
2023-10-22T23:45:51.736Z,96607.69
2023-10-22T23:48:23.287Z,96611.63
2023-10-22T23:50:54.836Z,96603.31
2023-10-22T23:53:26.504Z,96599.97
2023-10-22T23:55:58.070Z,96602.25
2023-10-22T23:58:29.550Z,96600.34
